createdAt,value
2018-11-23T00:01:32.041Z,52.10
2018-11-23T00:04:00.688Z,45.97
2018-11-23T00:06:29.340Z,50.93
2018-11-23T00:08:58.040Z,54.07
2018-11-23T00:11:26.651Z,61.20
2018-11-23T00:13:55.267Z,58.33
2018-11-23T00:16:23.884Z,89.53
2018-11-23T00:18:52.532Z,81.57
2018-11-23T00:21:21.144Z,63.97
2018-11-23T00:23:49.772Z,52.27
2018-11-23T00:26:18.416Z,55.97
2018-11-23T00:28:47.036Z,53.47
2018-11-23T00:31:15.680Z,55.70
2018-11-23T00:33:44.272Z,57.07
2018-11-23T00:36:12.859Z,58.60
2018-11-23T00:38:41.471Z,50.73
2018-11-23T00:41:10.088Z,49.10
2018-11-23T00:43:38.771Z,56.20
2018-11-23T00:46:07.499Z,58.17
2018-11-23T00:48:36.111Z,57.80
2018-11-23T00:51:05.119Z,54.03
2018-11-23T00:53:33.751Z,60.37
2018-11-23T00:56:02.418Z,54.93
2018-11-23T00:58:31.023Z,55.70
2018-11-23T01:00:59.665Z,53.40
2018-11-23T01:03:28.355Z,54.53
2018-11-23T01:05:56.995Z,53.17
2018-11-23T01:08:25.631Z,44.57
2018-11-23T01:10:54.271Z,52.67
2018-11-23T01:13:22.887Z,52.83
2018-11-23T01:15:51.498Z,53.17
2018-11-23T01:18:20.135Z,65.00
2018-11-23T01:20:48.770Z,57.10
2018-11-23T01:23:17.399Z,56.53
2018-11-23T01:25:46.027Z,49.07
2018-11-23T01:28:14.638Z,54.30
2018-11-23T01:30:43.242Z,55.57
2018-11-23T01:33:11.858Z,51.30
2018-11-23T01:35:40.470Z,50.70
2018-11-23T01:38:09.078Z,46.33
2018-11-23T01:40:38.751Z,54.10
2018-11-23T01:43:06.382Z,57.53
2018-11-23T01:45:35.015Z,53.10
2018-11-23T01:48:03.646Z,50.33
2018-11-23T01:50:32.418Z,48.63
2018-11-23T01:53:01.052Z,58.27
2018-11-23T01:55:29.775Z,54.67
2018-11-23T01:57:58.390Z,57.50
2018-11-23T02:00:28.298Z,57.77
2018-11-23T02:02:57.403Z,58.53
2018-11-23T02:05:26.015Z,57.17
2018-11-23T02:08:08.246Z,56.20
2018-11-23T02:10:36.861Z,57.70
2018-11-23T02:13:05.698Z,51.47
2018-11-23T02:15:34.314Z,55.43
2018-11-23T02:18:02.959Z,53.47
2018-11-23T02:20:31.570Z,52.00
2018-11-23T02:23:00.186Z,52.43
2018-11-23T02:25:28.801Z,52.27
2018-11-23T02:28:14.934Z,50.53
2018-11-23T02:30:44.014Z,51.53
2018-11-23T02:33:12.694Z,46.57
2018-11-23T02:35:41.322Z,48.50
2018-11-23T02:38:09.922Z,45.83
2018-11-23T02:40:38.605Z,47.97
2018-11-23T02:43:07.193Z,51.00
2018-11-23T02:45:35.805Z,52.47
2018-11-23T02:48:04.473Z,50.40
2018-11-23T02:50:33.086Z,52.03
2018-11-23T02:53:01.710Z,52.17
2018-11-23T02:55:30.901Z,53.60
2018-11-23T02:57:59.521Z,53.03
2018-11-23T03:00:28.142Z,47.00
2018-11-23T03:02:56.806Z,53.40
2018-11-23T03:05:25.437Z,59.63
2018-11-23T03:07:54.030Z,50.93
2018-11-23T03:10:22.646Z,51.90
2018-11-23T03:12:51.371Z,52.97
2018-11-23T03:15:20.717Z,45.73
2018-11-23T03:17:49.933Z,49.90
2018-11-23T03:20:20.681Z,51.83
2018-11-23T03:22:49.333Z,55.53
2018-11-23T03:25:17.986Z,45.90
2018-11-23T03:27:46.620Z,45.70
2018-11-23T03:30:18.107Z,49.77
2018-11-23T03:32:47.847Z,44.60
2018-11-23T03:35:17.001Z,47.77
2018-11-23T03:37:45.897Z,49.17
2018-11-23T03:40:14.537Z,58.87
2018-11-23T03:42:43.157Z,45.17
2018-11-23T03:45:12.882Z,55.97
2018-11-23T03:47:42.102Z,48.63
2018-11-23T03:50:11.881Z,50.47
2018-11-23T03:52:40.793Z,53.80
2018-11-23T03:55:09.425Z,50.10
2018-11-23T03:57:38.177Z,54.10
2018-11-23T04:00:17.160Z,51.83
2018-11-23T04:02:39.442Z,49.10
2018-11-23T04:05:08.253Z,48.43
2018-11-23T04:07:36.861Z,53.50
2018-11-23T04:10:06.662Z,51.37
2018-11-23T04:12:35.361Z,48.33
2018-11-23T04:15:04.105Z,47.17
2018-11-23T04:17:32.776Z,50.30
2018-11-23T04:20:01.385Z,46.20
2018-11-23T04:22:30.013Z,46.90
2018-11-23T04:24:58.641Z,52.17
2018-11-23T04:27:27.264Z,47.93
2018-11-23T04:29:55.900Z,46.73
2018-11-23T04:32:24.612Z,49.27
2018-11-23T04:34:53.300Z,49.33
2018-11-23T04:37:21.973Z,45.40
2018-11-23T04:39:50.672Z,50.83
2018-11-23T04:42:19.296Z,47.60
2018-11-23T04:44:47.900Z,50.13
2018-11-23T04:47:16.496Z,48.23
2018-11-23T04:49:45.300Z,49.00
2018-11-23T04:52:13.909Z,55.83
2018-11-23T04:54:42.508Z,51.63
2018-11-23T04:57:11.156Z,51.87
2018-11-23T04:59:39.756Z,57.27
2018-11-23T05:02:08.467Z,46.93
2018-11-23T05:04:37.060Z,58.20
2018-11-23T05:07:05.736Z,60.37
2018-11-23T05:09:34.364Z,63.00
2018-11-23T05:12:02.996Z,59.73
2018-11-23T05:14:31.667Z,53.17
2018-11-23T05:17:00.300Z,57.30
2018-11-23T05:19:28.938Z,53.00
2018-11-23T05:21:57.579Z,64.40
2018-11-23T05:24:26.244Z,59.63
2018-11-23T05:26:54.843Z,65.63
2018-11-23T05:29:23.443Z,65.30
2018-11-23T05:31:52.055Z,65.47
2018-11-23T05:34:20.703Z,64.17
2018-11-23T05:36:49.347Z,70.13
2018-11-23T05:39:17.968Z,70.03
2018-11-23T05:41:47.378Z,66.37
2018-11-23T05:44:15.586Z,64.57
2018-11-23T05:46:44.226Z,72.97
2018-11-23T05:49:12.858Z,69.93
2018-11-23T05:51:41.510Z,78.53
2018-11-23T05:54:10.180Z,69.97
2018-11-23T05:56:38.809Z,63.77
2018-11-23T05:59:07.443Z,71.80
2018-11-23T06:01:36.051Z,78.30
2018-11-23T06:04:04.946Z,76.10
2018-11-23T06:06:33.626Z,101.17
2018-11-23T06:09:02.262Z,100.23
2018-11-23T06:11:30.874Z,93.63
2018-11-23T06:13:59.502Z,108.13
2018-11-23T06:16:28.094Z,78.20
2018-11-23T06:18:56.705Z,79.97
2018-11-23T06:21:25.329Z,71.70
2018-11-23T06:23:54.067Z,75.90
2018-11-23T06:26:24.853Z,70.97
2018-11-23T06:28:53.622Z,87.93
2018-11-23T06:31:22.234Z,85.90
2018-11-23T06:33:51.133Z,78.67
2018-11-23T06:36:19.737Z,79.77
2018-11-23T06:38:48.363Z,72.97
2018-11-23T06:41:16.965Z,71.00
2018-11-23T06:43:46.041Z,74.97
2018-11-23T06:46:14.666Z,66.07
2018-11-23T06:48:43.312Z,75.77
2018-11-23T06:51:11.941Z,81.87
2018-11-23T06:53:40.529Z,75.77
2018-11-23T06:56:09.161Z,73.33
2018-11-23T06:58:37.761Z,74.47
2018-11-23T07:01:06.374Z,82.47
2018-11-23T07:03:35.012Z,80.67
2018-11-23T07:06:03.669Z,73.63
2018-11-23T07:08:32.785Z,74.73
2018-11-23T07:11:02.856Z,76.73
2018-11-23T07:13:32.337Z,80.63
2018-11-23T07:16:01.049Z,76.80
2018-11-23T07:18:29.793Z,87.10
2018-11-23T07:20:58.404Z,80.43
2018-11-23T07:23:27.080Z,80.70
2018-11-23T07:25:55.712Z,85.47
2018-11-23T07:28:24.316Z,75.30
2018-11-23T07:30:52.964Z,81.77
2018-11-23T07:33:21.580Z,80.33
2018-11-23T07:35:50.276Z,78.30
2018-11-23T07:38:18.884Z,91.70
2018-11-23T07:40:58.814Z,78.70
2018-11-23T07:43:27.425Z,79.57
2018-11-23T07:45:56.057Z,86.27
2018-11-23T07:48:24.679Z,85.20
2018-11-23T07:50:53.311Z,90.00
2018-11-23T07:53:21.931Z,83.37
2018-11-23T07:55:50.551Z,87.33
2018-11-23T07:58:19.176Z,86.03
2018-11-23T08:00:47.801Z,78.47
2018-11-23T08:03:16.409Z,84.33
2018-11-23T08:05:45.023Z,91.30
2018-11-23T08:08:13.627Z,76.37
2018-11-23T08:10:41.415Z,81.50
2018-11-23T08:13:10.016Z,89.13
2018-11-23T08:15:38.663Z,81.40
2018-11-23T08:18:07.319Z,99.33
2018-11-23T08:20:35.955Z,103.47
2018-11-23T08:23:04.639Z,104.87
2018-11-23T08:25:33.253Z,110.87
2018-11-23T08:28:01.863Z,130.07
2018-11-23T08:30:30.914Z,114.80
2018-11-23T08:32:59.945Z,106.37
2018-11-23T08:35:28.587Z,98.67
2018-11-23T08:37:57.195Z,108.67
2018-11-23T08:40:27.060Z,111.10
2018-11-23T08:42:56.255Z,107.97
2018-11-23T08:45:26.078Z,114.90
2018-11-23T08:47:54.684Z,96.57
2018-11-23T08:50:29.514Z,91.50
2018-11-23T08:52:58.378Z,87.53
2018-11-23T08:55:27.524Z,89.67
2018-11-23T08:57:56.135Z,102.00
2018-11-23T09:00:27.866Z,89.17
2018-11-23T09:02:58.186Z,129.80
2018-11-23T09:05:26.818Z,98.47
2018-11-23T09:07:56.370Z,94.10
2018-11-23T09:10:26.581Z,88.97
2018-11-23T09:12:59.509Z,89.07
2018-11-23T09:15:28.147Z,83.50
2018-11-23T09:17:56.790Z,85.03
2018-11-23T09:20:25.458Z,91.77
2018-11-23T09:22:54.070Z,85.23
2018-11-23T09:25:23.329Z,93.57
2018-11-23T09:27:51.999Z,83.77
2018-11-23T09:30:22.850Z,88.30
2018-11-23T09:32:52.226Z,83.40
2018-11-23T09:35:20.965Z,81.00
2018-11-23T09:37:50.048Z,88.33
2018-11-23T09:40:20.825Z,101.53
2018-11-23T09:42:49.696Z,92.50
2018-11-23T09:45:20.730Z,79.20
2018-11-23T09:47:50.553Z,95.73
2018-11-23T09:50:20.473Z,99.93
2018-11-23T09:52:50.258Z,96.47
2018-11-23T09:55:19.444Z,95.93
2018-11-23T09:57:48.078Z,103.03
2018-11-23T10:00:19.554Z,151.77
2018-11-23T10:02:49.134Z,138.80
2018-11-23T10:05:18.261Z,131.27
2018-11-23T10:07:48.257Z,104.07
2018-11-23T10:10:17.721Z,111.17
2018-11-23T10:12:46.469Z,107.60
2018-11-23T10:15:16.361Z,126.20
2018-11-23T10:17:45.021Z,206.40
2018-11-23T10:20:15.941Z,116.70
2018-11-23T10:22:45.113Z,93.20
2018-11-23T10:25:16.269Z,101.60
2018-11-23T10:27:45.166Z,104.70
2018-11-23T10:30:17.057Z,114.60
2018-11-23T10:32:46.450Z,345.83
2018-11-23T10:35:15.370Z,321.20
2018-11-23T10:37:44.953Z,410.43
2018-11-23T10:40:15.881Z,111.73
2018-11-23T10:42:44.877Z,95.10
2018-11-23T10:45:15.405Z,92.33
2018-11-23T10:47:44.105Z,151.80
2018-11-23T10:50:15.661Z,150.07
2018-11-23T10:52:44.568Z,100.47
2018-11-23T10:55:16.364Z,95.63
2018-11-23T10:57:45.029Z,102.90
2018-11-23T11:00:21.121Z,176.97
2018-11-23T11:02:55.576Z,118.00
2018-11-23T11:05:29.656Z,93.37
2018-11-23T11:07:59.848Z,101.73
2018-11-23T11:10:28.563Z,89.80
2018-11-23T11:12:57.280Z,93.97
2018-11-23T11:15:25.924Z,105.63
2018-11-23T11:17:54.536Z,88.30
2018-11-23T11:20:23.169Z,93.20
2018-11-23T11:22:51.884Z,104.27
2018-11-23T11:25:20.504Z,100.40
2018-11-23T11:27:49.154Z,94.87
2018-11-23T11:30:18.481Z,95.47
2018-11-23T11:32:47.515Z,86.40
2018-11-23T11:35:16.164Z,94.53
2018-11-23T11:37:45.133Z,98.03
2018-11-23T11:40:15.171Z,91.50
2018-11-23T11:42:44.144Z,95.33
2018-11-23T11:45:15.119Z,107.10
2018-11-23T11:47:44.423Z,99.73
2018-11-23T11:50:13.544Z,96.53
2018-11-23T11:52:43.241Z,101.13
2018-11-23T11:55:13.915Z,92.17
2018-11-23T11:57:43.055Z,84.43
2018-11-23T12:00:16.915Z,78.77
2018-11-23T12:02:45.608Z,84.37
2018-11-23T12:05:17.679Z,82.87
2018-11-23T12:07:46.332Z,85.13
2018-11-23T12:10:17.263Z,89.57
2018-11-23T12:12:46.095Z,80.27
2018-11-23T12:15:15.463Z,72.13
2018-11-23T12:17:44.127Z,71.03
2018-11-23T12:20:14.995Z,73.53
2018-11-23T12:22:43.888Z,72.00
2018-11-23T12:25:12.699Z,72.47
2018-11-23T12:27:41.331Z,66.03
2018-11-23T12:30:11.896Z,73.70
2018-11-23T12:32:41.223Z,70.87
2018-11-23T12:35:11.273Z,79.10
2018-11-23T12:37:40.151Z,85.80
2018-11-23T12:40:11.079Z,82.33
2018-11-23T12:42:39.845Z,373.83
2018-11-23T12:45:10.300Z,127.60
2018-11-23T12:47:39.023Z,81.40
2018-11-23T12:50:10.879Z,79.37
2018-11-23T12:52:39.551Z,90.80
2018-11-23T12:55:08.765Z,81.43
2018-11-23T12:57:37.378Z,86.73
2018-11-23T13:00:11.961Z,83.67
2018-11-23T13:02:40.601Z,79.50
2018-11-23T13:05:09.213Z,79.93
2018-11-23T13:07:37.827Z,80.23
2018-11-23T13:10:06.997Z,79.03
2018-11-23T13:12:35.626Z,88.60
2018-11-23T13:15:04.717Z,82.00
2018-11-23T13:17:33.354Z,79.13
2018-11-23T13:20:01.985Z,79.47
2018-11-23T13:22:30.794Z,81.97
2018-11-23T13:24:59.317Z,83.23
2018-11-23T13:27:27.876Z,77.80
2018-11-23T13:29:56.370Z,83.47
2018-11-23T13:32:24.841Z,84.23
2018-11-23T13:34:53.384Z,74.80
2018-11-23T13:37:21.912Z,86.30
2018-11-23T13:39:50.440Z,75.10
2018-11-23T13:42:18.948Z,71.33
2018-11-23T13:44:47.464Z,81.50
2018-11-23T13:47:15.964Z,85.67
2018-11-23T13:49:44.498Z,73.30
2018-11-23T13:52:12.992Z,80.00
2018-11-23T13:54:41.488Z,105.77
2018-11-23T13:57:10.020Z,112.67
2018-11-23T13:59:38.516Z,79.53
2018-11-23T14:02:07.036Z,181.63
2018-11-23T14:04:35.539Z,89.57
2018-11-23T14:07:04.070Z,80.20
2018-11-23T14:09:32.571Z,80.80
2018-11-23T14:12:01.136Z,299.50
2018-11-23T14:14:29.624Z,335.77
2018-11-23T14:16:58.127Z,121.07
2018-11-23T14:19:26.647Z,124.37
2018-11-23T14:21:55.163Z,74.13
2018-11-23T14:24:23.652Z,77.80
2018-11-23T14:26:52.154Z,85.07
2018-11-23T14:29:20.743Z,83.27
2018-11-23T14:31:49.247Z,72.67
2018-11-23T14:34:17.753Z,77.10
2018-11-23T14:36:46.287Z,84.43
2018-11-23T14:39:14.797Z,84.47
2018-11-23T14:41:43.648Z,84.17
2018-11-23T14:44:12.167Z,82.73
2018-11-23T14:46:40.692Z,76.03
2018-11-23T14:49:09.180Z,97.87
2018-11-23T14:51:37.712Z,77.40
2018-11-23T14:54:06.235Z,77.70
2018-11-23T14:56:34.750Z,80.10
2018-11-23T14:59:03.315Z,76.43
2018-11-23T15:01:31.831Z,85.77
2018-11-23T15:04:00.315Z,81.80
2018-11-23T15:06:28.823Z,77.90
2018-11-23T15:09:29.403Z,79.33
2018-11-23T15:12:27.495Z,101.87
2018-11-23T15:15:28.530Z,84.60
2018-11-23T15:18:26.409Z,88.70
2018-11-23T15:20:55.013Z,82.17
2018-11-23T15:23:53.758Z,82.03
2018-11-23T15:26:22.254Z,84.57
2018-11-23T15:28:50.766Z,88.57
2018-11-23T15:31:19.263Z,99.17
2018-11-23T15:33:47.830Z,110.87
2018-11-23T15:36:16.342Z,98.27
2018-11-23T15:38:44.846Z,102.67
2018-11-23T15:41:13.370Z,105.27
2018-11-23T15:43:41.858Z,97.50
2018-11-23T15:46:10.381Z,95.47
2018-11-23T15:48:38.906Z,97.70
2018-11-23T15:51:09.006Z,89.20
2018-11-23T15:53:37.807Z,95.80
2018-11-23T15:56:06.694Z,117.17
2018-11-23T15:58:35.169Z,99.60
2018-11-23T16:01:03.753Z,96.97
2018-11-23T16:03:32.513Z,112.70
2018-11-23T16:06:01.429Z,99.87
2018-11-23T16:08:30.118Z,94.77
2018-11-23T16:10:58.568Z,96.30
2018-11-23T16:13:27.042Z,87.83
2018-11-23T16:15:55.549Z,96.20
2018-11-23T16:18:24.065Z,95.87
2018-11-23T16:20:52.550Z,98.33
2018-11-23T16:23:21.689Z,99.43
2018-11-23T16:25:50.957Z,106.50
2018-11-23T16:28:19.439Z,101.03
2018-11-23T16:30:49.357Z,103.77
2018-11-23T16:33:20.309Z,105.03
2018-11-23T16:35:48.885Z,102.50
2018-11-23T16:38:18.806Z,112.73
2018-11-23T16:40:49.870Z,113.27
2018-11-23T16:43:18.364Z,117.03
2018-11-23T16:45:47.148Z,108.87
2018-11-23T16:48:16.260Z,97.87
2018-11-23T16:50:45.233Z,98.87
2018-11-23T16:53:13.792Z,109.70
2018-11-23T16:55:42.315Z,101.83
2018-11-23T16:58:11.989Z,106.53
2018-11-23T17:00:41.856Z,107.47
2018-11-23T17:03:12.064Z,108.83
2018-11-23T17:05:43.043Z,113.33
2018-11-23T17:08:11.723Z,113.27
2018-11-23T17:10:40.313Z,109.27
2018-11-23T17:13:08.967Z,105.27
2018-11-23T17:15:37.587Z,98.30
2018-11-23T17:18:07.500Z,109.43
2018-11-23T17:20:36.398Z,110.13
2018-11-23T17:23:06.227Z,111.20
2018-11-23T17:25:34.714Z,111.30
2018-11-23T17:28:04.711Z,108.40
2018-11-23T17:30:33.924Z,95.63
2018-11-23T17:33:02.439Z,104.37
2018-11-23T17:35:31.030Z,120.70
2018-11-23T17:37:59.531Z,91.87
2018-11-23T17:40:29.602Z,109.40
2018-11-23T17:42:58.530Z,107.73
2018-11-23T17:45:29.742Z,118.03
2018-11-23T17:47:58.286Z,102.67
2018-11-23T17:50:28.887Z,104.73
2018-11-23T17:52:57.583Z,105.63
2018-11-23T17:55:26.098Z,110.53
2018-11-23T17:57:55.447Z,100.73
2018-11-23T18:00:29.087Z,101.90
2018-11-23T18:02:58.358Z,106.87
2018-11-23T18:05:27.447Z,104.87
2018-11-23T18:07:56.030Z,96.37
2018-11-23T18:10:28.745Z,102.10
2018-11-23T18:12:57.946Z,95.93
2018-11-23T18:15:27.657Z,100.53
2018-11-23T18:17:57.194Z,92.93
2018-11-23T18:20:26.854Z,94.60
2018-11-23T18:22:56.172Z,86.33
2018-11-23T18:25:28.858Z,96.10
2018-11-23T18:28:00.510Z,100.57
2018-11-23T18:30:31.132Z,99.10
2018-11-23T18:33:00.163Z,111.50
2018-11-23T18:35:28.693Z,108.47
2018-11-23T18:37:57.924Z,115.83
2018-11-23T18:40:26.421Z,106.07
2018-11-23T18:42:54.949Z,129.90
2018-11-23T18:45:23.466Z,108.43
2018-11-23T18:47:51.957Z,97.17
2018-11-23T18:50:20.474Z,106.67
2018-11-23T18:52:48.956Z,112.23
2018-11-23T18:55:18.107Z,111.17
2018-11-23T18:57:46.046Z,126.00
2018-11-23T19:00:15.507Z,112.33
2018-11-23T19:02:45.209Z,105.13
2018-11-23T19:05:22.741Z,101.07
2018-11-23T19:07:51.345Z,96.63
2018-11-23T19:10:19.961Z,93.33
2018-11-23T19:12:48.529Z,92.23
2018-11-23T19:15:25.337Z,113.73
2018-11-23T19:17:46.801Z,112.53
2018-11-23T19:20:17.588Z,133.90
2018-11-23T19:22:48.392Z,108.43
2018-11-23T19:25:17.041Z,138.17
2018-11-23T19:27:45.673Z,132.00
2018-11-23T19:30:15.493Z,122.30
2018-11-23T19:32:44.133Z,102.27
2018-11-23T19:35:12.783Z,100.57
2018-11-23T19:37:41.512Z,99.67
2018-11-23T19:40:12.324Z,107.00
2018-11-23T19:42:40.924Z,98.83
2018-11-23T19:45:10.872Z,99.70
2018-11-23T19:47:39.720Z,104.70
2018-11-23T19:50:16.268Z,118.03
2018-11-23T19:52:44.828Z,104.63
2018-11-23T19:55:14.371Z,87.57
2018-11-23T19:57:42.987Z,102.60
2018-11-23T20:00:14.932Z,99.03
2018-11-23T20:02:43.600Z,98.63
2018-11-23T20:05:12.217Z,94.47
2018-11-23T20:07:40.948Z,92.47
2018-11-23T20:10:14.152Z,89.17
2018-11-23T20:12:43.006Z,91.00
2018-11-23T20:15:14.062Z,105.07
2018-11-23T20:17:42.681Z,94.50
2018-11-23T20:20:12.402Z,88.07
2018-11-23T20:22:41.032Z,98.13
2018-11-23T20:25:11.028Z,88.17
2018-11-23T20:27:39.580Z,100.20
2018-11-23T20:30:13.128Z,89.57
2018-11-23T20:32:41.779Z,95.10
2018-11-23T20:35:12.372Z,95.40
2018-11-23T20:37:41.108Z,101.17
2018-11-23T20:40:12.932Z,111.17
2018-11-23T20:42:41.504Z,111.73
2018-11-23T20:45:11.123Z,106.27
2018-11-23T20:47:39.863Z,103.20
2018-11-23T20:50:09.971Z,114.60
2018-11-23T20:52:38.629Z,109.30
2018-11-23T20:55:09.723Z,108.37
2018-11-23T20:57:38.239Z,105.27
2018-11-23T21:00:10.548Z,115.93
2018-11-23T21:02:39.056Z,99.40
2018-11-23T21:05:08.871Z,99.23
2018-11-23T21:07:37.707Z,99.17
2018-11-23T21:10:10.492Z,108.00
2018-11-23T21:12:39.036Z,111.63
2018-11-23T21:15:14.847Z,101.67
2018-11-23T21:17:43.347Z,97.10
2018-11-23T21:20:11.967Z,105.57
2018-11-23T21:22:40.523Z,99.67
2018-11-23T21:25:09.947Z,113.97
2018-11-23T21:27:38.479Z,100.93
2018-11-23T21:30:12.658Z,112.03
2018-11-23T21:32:41.196Z,106.87
2018-11-23T21:35:10.319Z,102.90
2018-11-23T21:37:38.824Z,109.37
2018-11-23T21:40:12.427Z,108.77
2018-11-23T21:42:41.211Z,106.20
2018-11-23T21:45:16.476Z,106.63
2018-11-23T21:47:45.026Z,106.93
2018-11-23T21:50:25.616Z,99.83
2018-11-23T21:52:50.214Z,106.70
2018-11-23T21:55:21.762Z,94.17
2018-11-23T21:57:50.559Z,87.10
2018-11-23T22:00:19.086Z,100.07
2018-11-23T22:02:47.602Z,98.63
2018-11-23T22:05:16.130Z,91.57
2018-11-23T22:07:44.745Z,88.07
2018-11-23T22:10:14.306Z,89.20
2018-11-23T22:12:42.838Z,87.83
2018-11-23T22:15:15.734Z,93.90
2018-11-23T22:17:44.298Z,86.70
2018-11-23T22:20:13.875Z,97.23
2018-11-23T22:22:42.414Z,97.33
2018-11-23T22:25:13.071Z,90.73
2018-11-23T22:27:41.647Z,85.67
2018-11-23T22:30:17.483Z,95.93
2018-11-23T22:32:45.998Z,89.27
2018-11-23T22:35:14.568Z,88.07
2018-11-23T22:37:43.090Z,88.27
2018-11-23T22:40:12.958Z,82.17
2018-11-23T22:42:42.557Z,80.20
2018-11-23T22:45:12.190Z,83.57
2018-11-23T22:47:40.713Z,87.37
2018-11-23T22:50:10.834Z,80.67
2018-11-23T22:52:39.369Z,93.57
2018-11-23T22:55:09.397Z,78.60
2018-11-23T22:57:38.061Z,95.13
2018-11-23T23:00:16.853Z,100.40
2018-11-23T23:02:45.381Z,85.97
2018-11-23T23:05:13.899Z,94.90
2018-11-23T23:07:42.426Z,94.90
2018-11-23T23:10:10.953Z,96.23
2018-11-23T23:12:39.465Z,94.67
2018-11-23T23:15:09.693Z,97.50
2018-11-23T23:17:38.225Z,107.63
2018-11-23T23:20:09.361Z,104.23
2018-11-23T23:22:37.904Z,90.67
2018-11-23T23:25:07.613Z,101.33
2018-11-23T23:27:36.225Z,88.37
2018-11-23T23:30:06.298Z,96.07
2018-11-23T23:32:34.814Z,94.07
2018-11-23T23:35:03.380Z,96.90
2018-11-23T23:37:31.894Z,98.07
2018-11-23T23:40:00.414Z,98.67
2018-11-23T23:42:28.909Z,100.80
2018-11-23T23:44:57.448Z,117.63
2018-11-23T23:47:25.956Z,98.47
2018-11-23T23:49:54.465Z,112.17
2018-11-23T23:52:22.981Z,104.97
2018-11-23T23:54:51.773Z,108.23
2018-11-23T23:57:20.281Z,103.23
2018-11-23T23:59:48.797Z,101.93
